createdAt,value
2019-02-28T00:01:07.553Z,39.73
2019-02-28T00:03:37.060Z,39.38
2019-02-28T00:06:11.735Z,39.55
2019-02-28T00:08:37.606Z,40.25
2019-02-28T00:11:07.035Z,39.30
2019-02-28T00:13:36.458Z,38.95
2019-02-28T00:16:05.888Z,44.58
2019-02-28T00:18:35.398Z,40.45
2019-02-28T00:21:06.989Z,39.23
2019-02-28T00:23:35.895Z,39.20
2019-02-28T00:26:05.319Z,41.68
2019-02-28T00:28:34.756Z,40.58
2019-02-28T00:31:04.165Z,41.55
2019-02-28T00:33:33.596Z,40.75
2019-02-28T00:36:03.092Z,39.20
2019-02-28T00:38:32.503Z,39.90
2019-02-28T00:41:01.952Z,41.42
2019-02-28T00:43:31.350Z,41.02
2019-02-28T00:46:00.796Z,39.55
2019-02-28T00:48:30.229Z,40.30
2019-02-28T00:50:59.684Z,39.95
2019-02-28T00:53:29.115Z,39.42
2019-02-28T00:55:58.566Z,39.53
2019-02-28T00:58:28.952Z,39.18
2019-02-28T01:00:59.078Z,39.58
2019-02-28T01:03:28.491Z,42.08
2019-02-28T01:05:57.939Z,40.48
2019-02-28T01:08:27.350Z,39.40
2019-02-28T01:10:56.833Z,39.70
2019-02-28T01:13:28.065Z,40.17
2019-02-28T01:15:57.317Z,41.85
2019-02-28T01:18:26.745Z,40.33
2019-02-28T01:20:56.190Z,42.40
2019-02-28T01:23:25.599Z,40.40
2019-02-28T01:25:55.039Z,38.60
2019-02-28T01:28:26.961Z,43.58
2019-02-28T01:30:55.620Z,41.28
2019-02-28T01:33:25.706Z,39.75
2019-02-28T01:35:55.186Z,40.63
2019-02-28T01:38:25.187Z,40.67
2019-02-28T01:40:54.664Z,40.20
2019-02-28T01:43:28.388Z,41.30
2019-02-28T01:45:55.329Z,41.45
2019-02-28T01:48:24.738Z,41.35
2019-02-28T01:50:54.283Z,42.00
2019-02-28T01:53:23.730Z,41.30
2019-02-28T01:55:53.177Z,41.83
2019-02-28T01:58:22.600Z,41.00
2019-02-28T02:00:53.581Z,41.00
2019-02-28T02:03:23.335Z,42.10
2019-02-28T02:05:52.771Z,41.53
2019-02-28T02:08:22.318Z,40.78
2019-02-28T02:10:54.764Z,41.13
2019-02-28T02:13:22.831Z,41.00
2019-02-28T02:15:52.276Z,42.40
2019-02-28T02:18:21.693Z,40.48
2019-02-28T02:20:51.162Z,40.60
2019-02-28T02:23:20.600Z,40.73
2019-02-28T02:25:50.021Z,41.60
2019-02-28T02:28:19.455Z,40.80
2019-02-28T02:30:50.885Z,40.33
2019-02-28T02:33:19.931Z,40.58
2019-02-28T02:35:49.484Z,42.50
2019-02-28T02:38:18.896Z,42.62
2019-02-28T02:40:48.343Z,42.70
2019-02-28T02:43:21.930Z,41.85
2019-02-28T02:45:48.885Z,43.15
2019-02-28T02:48:18.319Z,40.17
2019-02-28T02:50:47.723Z,43.38
2019-02-28T02:53:17.268Z,41.63
2019-02-28T02:55:46.763Z,43.20
2019-02-28T02:58:16.224Z,41.88
2019-02-28T03:00:49.321Z,42.53
2019-02-28T03:03:16.713Z,41.95
2019-02-28T03:05:46.164Z,42.25
2019-02-28T03:08:15.826Z,40.83
2019-02-28T03:10:45.244Z,41.68
2019-02-28T03:13:14.674Z,41.95
2019-02-28T03:15:44.093Z,41.53
2019-02-28T03:18:13.584Z,39.78
2019-02-28T03:20:43.042Z,41.95
2019-02-28T03:23:12.493Z,40.45
2019-02-28T03:25:41.902Z,40.90
2019-02-28T03:28:13.151Z,40.25
2019-02-28T03:30:42.385Z,42.60
2019-02-28T03:33:23.427Z,40.85
2019-02-28T03:35:44.110Z,40.33
2019-02-28T03:38:14.142Z,41.23
2019-02-28T03:40:43.567Z,42.00
2019-02-28T03:43:13.020Z,42.78
2019-02-28T03:45:42.477Z,41.68
2019-02-28T03:48:11.902Z,41.42
2019-02-28T03:50:41.332Z,41.95
2019-02-28T03:53:10.779Z,39.03
2019-02-28T03:55:41.507Z,40.78
2019-02-28T03:58:11.072Z,42.48
2019-02-28T04:00:40.500Z,41.08
2019-02-28T04:03:09.963Z,41.55
2019-02-28T04:05:39.372Z,40.38
2019-02-28T04:08:08.827Z,41.65
2019-02-28T04:10:38.248Z,39.92
2019-02-28T04:13:07.671Z,40.43
2019-02-28T04:15:37.111Z,39.25
2019-02-28T04:18:07.577Z,40.88
2019-02-28T04:20:37.970Z,38.65
2019-02-28T04:23:07.748Z,39.55
2019-02-28T04:25:37.201Z,40.83
2019-02-28T04:28:06.636Z,40.25
2019-02-28T04:30:42.659Z,41.50
2019-02-28T04:33:07.138Z,40.88
2019-02-28T04:35:36.555Z,40.80
2019-02-28T04:38:06.076Z,41.18
2019-02-28T04:40:35.611Z,42.30
2019-02-28T04:43:07.214Z,40.75
2019-02-28T04:45:36.079Z,39.53
2019-02-28T04:48:05.513Z,41.55
2019-02-28T04:50:34.929Z,40.28
2019-02-28T04:53:04.370Z,40.00
2019-02-28T04:55:34.212Z,42.35
2019-02-28T04:58:04.834Z,41.80
2019-02-28T05:00:34.326Z,38.98
2019-02-28T05:03:03.738Z,38.25
2019-02-28T05:05:33.177Z,39.63
2019-02-28T05:08:05.734Z,37.40
2019-02-28T05:10:33.631Z,36.13
2019-02-28T05:13:03.049Z,37.30
2019-02-28T05:15:37.192Z,36.00
2019-02-28T05:18:03.536Z,34.33
2019-02-28T05:20:32.979Z,36.38
2019-02-28T05:23:02.969Z,35.92
2019-02-28T05:25:32.452Z,36.05
2019-02-28T05:28:01.891Z,33.65
2019-02-28T05:30:31.328Z,32.10
2019-02-28T05:33:00.756Z,34.55
2019-02-28T05:35:30.192Z,32.95
2019-02-28T05:37:59.608Z,33.45
2019-02-28T05:40:29.056Z,31.95
2019-02-28T05:42:59.189Z,32.35
2019-02-28T05:45:28.719Z,32.10
2019-02-28T05:47:58.139Z,33.33
2019-02-28T05:50:27.599Z,33.40
2019-02-28T05:52:57.028Z,32.80
2019-02-28T05:55:26.511Z,33.02
2019-02-28T05:57:55.905Z,32.85
2019-02-28T06:00:25.715Z,32.30
2019-02-28T06:02:58.072Z,31.85
2019-02-28T06:05:26.227Z,33.38
2019-02-28T06:07:55.642Z,32.08
2019-02-28T06:10:25.167Z,32.25
2019-02-28T06:12:54.574Z,31.55
2019-02-28T06:15:24.079Z,32.53
2019-02-28T06:17:54.963Z,33.33
2019-02-28T06:20:24.629Z,33.63
2019-02-28T06:22:53.980Z,31.97
2019-02-28T06:25:25.562Z,32.45
2019-02-28T06:27:54.677Z,31.87
2019-02-28T06:30:24.176Z,31.82
2019-02-28T06:32:57.853Z,32.33
2019-02-28T06:35:24.750Z,33.88
2019-02-28T06:37:54.176Z,31.35
2019-02-28T06:40:23.644Z,32.10
2019-02-28T06:42:53.045Z,32.93
2019-02-28T06:45:22.508Z,32.28
2019-02-28T06:47:51.947Z,32.23
2019-02-28T06:50:21.403Z,33.42
2019-02-28T06:52:50.831Z,34.23
2019-02-28T06:55:27.428Z,35.35
2019-02-28T06:57:58.884Z,33.60
2019-02-28T07:00:27.954Z,34.15
2019-02-28T07:02:57.397Z,36.20
2019-02-28T07:05:26.823Z,33.75
2019-02-28T07:07:56.266Z,34.78
2019-02-28T07:10:25.701Z,35.95
2019-02-28T07:12:56.058Z,36.73
2019-02-28T07:15:25.500Z,33.88
2019-02-28T07:17:54.944Z,34.03
2019-02-28T07:20:24.384Z,35.30
2019-02-28T07:22:55.643Z,33.63
2019-02-28T07:25:24.869Z,35.85
2019-02-28T07:27:54.369Z,35.25
2019-02-28T07:30:23.768Z,36.30
2019-02-28T07:32:53.214Z,36.20
2019-02-28T07:35:22.641Z,35.30
2019-02-28T07:37:54.409Z,34.88
2019-02-28T07:40:23.136Z,33.65
2019-02-28T07:42:52.575Z,33.95
2019-02-28T07:45:22.007Z,35.43
2019-02-28T07:47:52.657Z,42.75
2019-02-28T07:50:22.449Z,34.88
2019-02-28T07:52:53.182Z,36.95
2019-02-28T07:55:22.937Z,34.55
2019-02-28T07:57:56.273Z,35.65
2019-02-28T08:00:24.605Z,36.53
2019-02-28T08:02:54.035Z,34.00
2019-02-28T08:05:30.929Z,36.20
2019-02-28T08:07:59.028Z,34.78
2019-02-28T08:10:33.206Z,35.10
2019-02-28T08:13:03.303Z,36.73
2019-02-28T08:15:33.652Z,34.50
2019-02-28T08:18:03.075Z,36.45
2019-02-28T08:20:34.024Z,35.73
2019-02-28T08:23:03.580Z,34.45
2019-02-28T08:25:32.999Z,36.15
2019-02-28T08:28:02.433Z,34.85
2019-02-28T08:30:34.055Z,37.38
2019-02-28T08:33:03.511Z,36.95
2019-02-28T08:35:34.934Z,36.40
2019-02-28T08:38:04.004Z,38.23
2019-02-28T08:40:33.434Z,37.50
2019-02-28T08:43:02.886Z,37.95
2019-02-28T08:45:33.482Z,38.38
2019-02-28T08:48:03.395Z,38.63
2019-02-28T08:50:32.803Z,37.50
2019-02-28T08:53:05.814Z,38.75
2019-02-28T08:55:38.498Z,41.42
2019-02-28T08:58:06.790Z,39.23
2019-02-28T09:00:37.715Z,39.63
2019-02-28T09:03:07.221Z,39.20
2019-02-28T09:05:36.642Z,40.35
2019-02-28T09:08:06.124Z,41.15
2019-02-28T09:10:37.360Z,41.13
2019-02-28T09:13:08.607Z,42.93
2019-02-28T09:15:37.994Z,43.65
2019-02-28T09:18:07.475Z,44.98
2019-02-28T09:20:37.317Z,46.58
2019-02-28T09:23:06.737Z,47.10
2019-02-28T09:25:36.139Z,46.88
2019-02-28T09:28:05.679Z,49.70
2019-02-28T09:30:42.824Z,49.95
2019-02-28T09:33:12.273Z,50.70
2019-02-28T09:35:45.234Z,52.23
2019-02-28T09:38:13.730Z,49.23
2019-02-28T09:40:43.410Z,51.63
2019-02-28T09:43:12.839Z,52.03
2019-02-28T09:45:42.264Z,54.23
2019-02-28T09:48:11.720Z,51.35
2019-02-28T09:50:41.132Z,52.20
2019-02-28T09:53:15.561Z,53.80
2019-02-28T09:55:41.724Z,51.65
2019-02-28T09:58:11.199Z,53.63
2019-02-28T10:00:43.247Z,54.10
2019-02-28T10:03:11.664Z,58.10
2019-02-28T10:05:42.439Z,56.83
2019-02-28T10:08:12.216Z,56.42
2019-02-28T10:10:41.768Z,58.45
2019-02-28T10:13:11.192Z,60.33
2019-02-28T10:15:41.698Z,60.05
2019-02-28T10:18:11.791Z,61.80
2019-02-28T10:20:41.717Z,59.45
2019-02-28T10:23:11.207Z,61.20
2019-02-28T10:25:43.511Z,60.55
2019-02-28T10:28:11.775Z,61.75
2019-02-28T10:30:41.181Z,59.70
2019-02-28T10:33:10.614Z,61.68
2019-02-28T10:35:40.056Z,60.35
2019-02-28T10:38:09.484Z,61.13
2019-02-28T10:40:38.946Z,55.98
2019-02-28T10:43:08.363Z,59.05
2019-02-28T10:45:41.271Z,54.88
2019-02-28T10:48:08.865Z,54.33
2019-02-28T10:50:39.000Z,53.98
2019-02-28T10:53:08.441Z,51.60
2019-02-28T10:55:37.978Z,52.65
2019-02-28T10:58:07.401Z,52.67
2019-02-28T11:00:40.211Z,48.65
2019-02-28T11:03:09.637Z,48.95
2019-02-28T11:05:41.688Z,47.45
2019-02-28T11:08:16.405Z,45.95
2019-02-28T11:10:46.371Z,43.20
2019-02-28T11:13:18.596Z,43.42
2019-02-28T11:15:49.260Z,39.75
2019-02-28T11:18:19.112Z,37.60
2019-02-28T11:20:48.495Z,36.08
2019-02-28T11:23:17.925Z,34.40
2019-02-28T11:25:47.365Z,34.67
2019-02-28T11:28:17.242Z,32.38
2019-02-28T11:30:46.820Z,30.50
2019-02-28T11:33:17.616Z,28.38
2019-02-28T11:35:47.088Z,26.35
2019-02-28T11:38:20.391Z,23.52
2019-02-28T11:40:56.723Z,18.30
2019-02-28T11:43:18.616Z,18.92
2019-02-28T11:45:48.211Z,16.82
2019-02-28T11:48:23.808Z,15.53
2019-02-28T11:50:53.223Z,13.98
2019-02-28T11:53:22.647Z,14.07
2019-02-28T11:55:53.252Z,14.43
2019-02-28T11:58:23.182Z,12.33
2019-02-28T12:00:52.623Z,13.05
2019-02-28T12:03:22.044Z,12.25
2019-02-28T12:05:51.470Z,10.88
2019-02-28T12:08:22.313Z,12.15
2019-02-28T12:10:51.962Z,10.95
2019-02-28T12:13:21.345Z,9.83
2019-02-28T12:15:52.394Z,9.63
2019-02-28T12:18:21.822Z,9.88
2019-02-28T12:20:51.260Z,10.43
2019-02-28T12:23:23.511Z,9.23
2019-02-28T12:25:51.728Z,8.95
2019-02-28T12:28:21.177Z,10.88
2019-02-28T12:30:50.605Z,9.28
2019-02-28T12:33:23.170Z,10.98
2019-02-28T12:35:51.228Z,10.18
2019-02-28T12:38:21.075Z,9.30
2019-02-28T12:40:50.554Z,10.90
2019-02-28T12:43:19.957Z,10.50
2019-02-28T12:45:49.390Z,11.25
2019-02-28T12:48:18.812Z,9.88
2019-02-28T12:50:48.223Z,10.28
2019-02-28T12:53:17.659Z,9.43
2019-02-28T12:55:47.062Z,9.90
2019-02-28T12:58:16.483Z,8.25
2019-02-28T13:00:46.898Z,7.00
2019-02-28T13:03:20.298Z,7.75
2019-02-28T13:05:49.269Z,7.20
2019-02-28T13:08:18.430Z,6.35
2019-02-28T13:10:47.869Z,6.15
2019-02-28T13:13:17.311Z,6.22
2019-02-28T13:15:46.869Z,6.47
2019-02-28T13:18:16.263Z,6.15
2019-02-28T13:20:45.761Z,5.72
2019-02-28T13:23:17.073Z,6.83
2019-02-28T13:25:46.361Z,6.30
2019-02-28T13:28:17.984Z,5.28
2019-02-28T13:30:50.392Z,5.08
2019-02-28T13:33:17.932Z,5.72
2019-02-28T13:35:47.809Z,4.92
2019-02-28T13:38:19.181Z,5.95
2019-02-28T13:40:48.738Z,5.65
2019-02-28T13:43:20.929Z,5.92
2019-02-28T13:45:50.980Z,5.08
2019-02-28T13:48:25.938Z,5.55
2019-02-28T13:50:51.406Z,5.35
2019-02-28T13:53:23.235Z,5.10
2019-02-28T13:55:52.788Z,5.78
2019-02-28T13:58:23.146Z,5.37
2019-02-28T14:00:52.588Z,4.95
2019-02-28T14:03:22.052Z,5.87
2019-02-28T14:05:51.472Z,4.05
2019-02-28T14:08:20.923Z,5.03
2019-02-28T14:10:50.330Z,4.67
2019-02-28T14:13:19.786Z,5.30
2019-02-28T14:15:52.365Z,4.22
2019-02-28T14:18:21.949Z,3.95
2019-02-28T14:20:51.399Z,4.53
2019-02-28T14:23:21.648Z,4.40
2019-02-28T14:25:51.503Z,4.65
2019-02-28T14:28:20.934Z,3.58
2019-02-28T14:30:50.422Z,3.90
2019-02-28T14:33:20.743Z,4.35
2019-02-28T14:35:50.472Z,5.05
2019-02-28T14:38:19.884Z,3.80
2019-02-28T14:40:49.657Z,3.80
2019-02-28T14:43:20.763Z,3.83
2019-02-28T14:45:50.231Z,4.45
2019-02-28T14:48:20.504Z,3.22
2019-02-28T14:50:50.588Z,3.58
2019-02-28T14:53:21.311Z,2.70
2019-02-28T14:55:50.877Z,2.85
2019-02-28T14:58:21.306Z,2.62
2019-02-28T15:00:53.114Z,2.95
2019-02-28T15:03:22.909Z,2.90
2019-02-28T15:05:55.424Z,3.08
2019-02-28T15:08:23.695Z,2.47
2019-02-28T15:10:54.759Z,3.10
2019-02-28T15:13:24.349Z,2.30
2019-02-28T15:15:54.396Z,2.70
2019-02-28T15:18:25.885Z,2.92
2019-02-28T15:20:57.468Z,2.50
2019-02-28T15:23:26.958Z,2.90
2019-02-28T15:25:56.583Z,3.17
2019-02-28T15:28:26.407Z,2.33
2019-02-28T15:30:55.818Z,2.47
2019-02-28T15:33:27.482Z,2.40
2019-02-28T15:35:56.619Z,3.15
2019-02-28T15:38:28.301Z,2.30
2019-02-28T15:40:59.552Z,2.10
2019-02-28T15:43:30.638Z,1.82
2019-02-28T15:46:00.069Z,2.47
2019-02-28T15:48:31.397Z,1.92
2019-02-28T15:51:03.721Z,2.55
2019-02-28T15:53:33.664Z,2.30
2019-02-28T15:56:12.714Z,2.12
2019-02-28T15:58:37.625Z,2.17
2019-02-28T16:01:06.869Z,2.83
2019-02-28T16:03:36.306Z,2.12
2019-02-28T16:06:05.707Z,2.05
2019-02-28T16:08:35.131Z,4.53
2019-02-28T16:11:06.279Z,2.98
2019-02-28T16:13:35.580Z,2.50
2019-02-28T16:16:05.059Z,2.50
2019-02-28T16:18:34.478Z,3.00
2019-02-28T16:21:07.135Z,3.37
2019-02-28T16:23:35.313Z,2.30
2019-02-28T16:26:05.005Z,2.75
2019-02-28T16:28:34.610Z,2.60
2019-02-28T16:31:06.335Z,2.52
2019-02-28T16:33:37.098Z,3.50
2019-02-28T16:36:07.555Z,3.33
2019-02-28T16:38:38.092Z,3.10
2019-02-28T16:41:09.256Z,2.98
2019-02-28T16:43:38.819Z,3.10
2019-02-28T16:46:12.437Z,2.87
2019-02-28T16:48:44.480Z,3.00
2019-02-28T16:51:15.617Z,2.45
2019-02-28T16:53:48.013Z,3.22
2019-02-28T16:56:16.246Z,1.85
2019-02-28T16:58:46.347Z,2.15
2019-02-28T17:01:20.579Z,2.05
2019-02-28T17:03:52.222Z,2.65
2019-02-28T17:06:23.146Z,2.52
2019-02-28T17:08:56.001Z,2.45
2019-02-28T17:11:27.315Z,2.50
2019-02-28T17:14:03.047Z,2.22
2019-02-28T17:16:38.050Z,2.10
2019-02-28T17:19:08.557Z,2.05
2019-02-28T17:21:38.292Z,2.30
2019-02-28T17:24:12.194Z,2.42
2019-02-28T17:26:44.821Z,2.30
2019-02-28T17:29:16.037Z,2.42
2019-02-28T17:31:49.209Z,2.85
2019-02-28T17:34:23.995Z,2.67
2019-02-28T17:36:51.397Z,2.72
2019-02-28T17:39:20.799Z,3.00
2019-02-28T17:41:50.330Z,2.12
2019-02-28T17:44:33.893Z,2.67
2019-02-28T17:47:10.828Z,2.52
2019-02-28T17:50:16.514Z,6.42
2019-02-28T17:52:54.747Z,3.80
2019-02-28T17:55:55.782Z,4.33
2019-02-28T17:58:44.967Z,6.55
2019-02-28T18:01:29.881Z,11.10
2019-02-28T18:04:24.116Z,8.08
2019-02-28T18:09:55.759Z,7.35
2019-02-28T18:12:31.032Z,6.12
2019-02-28T18:15:05.628Z,6.12
2019-02-28T18:17:55.690Z,6.83
2019-02-28T18:20:33.983Z,6.30
2019-02-28T18:23:32.486Z,7.35
2019-02-28T18:26:38.676Z,7.40
2019-02-28T18:29:06.455Z,7.83
2019-02-28T18:31:35.898Z,6.95
2019-02-28T18:34:05.503Z,7.67
2019-02-28T18:36:34.929Z,7.83
2019-02-28T18:39:08.058Z,7.67
2019-02-28T18:41:38.988Z,9.40
2019-02-28T18:44:09.708Z,7.65
2019-02-28T18:46:39.154Z,8.23
2019-02-28T18:49:08.860Z,8.83
2019-02-28T18:51:38.253Z,8.63
2019-02-28T18:54:07.671Z,10.65
2019-02-28T18:56:37.127Z,10.00
2019-02-28T18:59:06.558Z,10.45
2019-02-28T19:01:36.027Z,9.95
2019-02-28T19:04:05.411Z,11.08
2019-02-28T19:06:34.843Z,12.65
2019-02-28T19:09:07.786Z,13.83
2019-02-28T19:11:37.217Z,11.22
2019-02-28T19:14:06.870Z,13.30
2019-02-28T19:16:36.412Z,11.93
2019-02-28T19:19:05.967Z,11.70
2019-02-28T19:21:35.527Z,11.57
2019-02-28T19:24:05.144Z,11.40
2019-02-28T19:26:36.359Z,13.32
2019-02-28T19:29:05.996Z,14.53
2019-02-28T19:31:35.520Z,14.40
2019-02-28T19:34:05.118Z,14.78
2019-02-28T19:36:34.634Z,15.10
2019-02-28T19:39:05.118Z,13.93
2019-02-28T19:41:36.498Z,13.50
2019-02-28T19:44:11.676Z,14.78
2019-02-28T19:46:41.140Z,16.77
2019-02-28T19:49:10.711Z,15.65
2019-02-28T19:51:40.431Z,14.38
2019-02-28T19:54:09.992Z,16.25
2019-02-28T19:56:39.428Z,16.05
2019-02-28T19:59:08.898Z,14.50
2019-02-28T20:01:38.331Z,13.95
2019-02-28T20:04:07.762Z,13.85
2019-02-28T20:06:37.208Z,13.48
2019-02-28T20:09:08.245Z,15.20
2019-02-28T20:11:37.688Z,13.65
2019-02-28T20:14:07.128Z,13.25
2019-02-28T20:16:36.559Z,11.10
2019-02-28T20:19:06.055Z,12.05
2019-02-28T20:21:35.481Z,11.43
2019-02-28T20:24:06.006Z,9.18
2019-02-28T20:26:35.431Z,9.25
2019-02-28T20:29:05.563Z,8.28
2019-02-28T20:31:34.980Z,8.78
2019-02-28T20:34:04.501Z,8.78
2019-02-28T20:36:33.940Z,8.58
2019-02-28T20:39:04.967Z,8.90
2019-02-28T20:41:34.395Z,9.18
2019-02-28T20:44:03.836Z,8.20
2019-02-28T20:46:33.281Z,7.85
2019-02-28T20:49:02.694Z,7.15
2019-02-28T20:51:32.205Z,7.17
2019-02-28T20:54:01.616Z,7.12
2019-02-28T20:56:31.078Z,7.08
2019-02-28T20:59:00.536Z,7.12
2019-02-28T21:01:29.987Z,8.08
2019-02-28T21:03:59.458Z,6.90
2019-02-28T21:06:28.871Z,6.72
2019-02-28T21:08:58.349Z,7.72
2019-02-28T21:11:27.748Z,6.03
2019-02-28T21:13:57.186Z,7.17
2019-02-28T21:16:26.595Z,11.65
2019-02-28T21:18:56.043Z,7.72
2019-02-28T21:21:25.492Z,6.92
2019-02-28T21:23:56.548Z,7.70
2019-02-28T21:26:25.972Z,6.85
2019-02-28T21:28:55.401Z,7.92
2019-02-28T21:31:25.559Z,7.87
2019-02-28T21:33:55.042Z,7.08
2019-02-28T21:36:24.455Z,9.15
2019-02-28T21:38:53.923Z,7.35
2019-02-28T21:41:23.562Z,5.95
2019-02-28T21:43:53.274Z,6.65
2019-02-28T21:46:23.784Z,6.83
2019-02-28T21:48:53.320Z,6.78
2019-02-28T21:51:22.796Z,6.95
2019-02-28T21:53:52.264Z,6.85
2019-02-28T21:56:21.715Z,7.45
2019-02-28T21:58:51.265Z,8.25
2019-02-28T22:01:21.578Z,6.33
2019-02-28T22:03:51.043Z,6.33
2019-02-28T22:06:20.500Z,6.65
2019-02-28T22:08:49.989Z,7.10
2019-02-28T22:11:19.389Z,5.95
2019-02-28T22:13:48.807Z,6.47
2019-02-28T22:16:18.241Z,6.50
2019-02-28T22:18:47.629Z,7.35
2019-02-28T22:21:17.046Z,7.95
2019-02-28T22:23:46.475Z,8.10
2019-02-28T22:26:15.892Z,6.97
2019-02-28T22:28:45.304Z,6.15
2019-02-28T22:31:19.625Z,6.60
2019-02-28T22:33:53.353Z,6.20
2019-02-28T22:36:25.116Z,6.15
2019-02-28T22:38:54.642Z,5.70
2019-02-28T22:41:24.082Z,6.42
2019-02-28T22:43:53.535Z,7.30
2019-02-28T22:46:22.963Z,6.20
2019-02-28T22:48:52.402Z,5.67
2019-02-28T22:51:21.825Z,6.47
2019-02-28T22:53:51.240Z,6.03
2019-02-28T22:56:20.696Z,6.45
2019-02-28T22:58:51.911Z,7.08
2019-02-28T23:01:24.261Z,6.58
2019-02-28T23:03:53.664Z,6.95
2019-02-28T23:06:23.094Z,7.42
2019-02-28T23:08:52.548Z,7.05
2019-02-28T23:11:22.014Z,7.80
2019-02-28T23:13:51.498Z,8.00
2019-02-28T23:16:20.940Z,7.60
2019-02-28T23:18:50.402Z,8.28
2019-02-28T23:21:19.836Z,8.03
2019-02-28T23:23:49.253Z,6.92
2019-02-28T23:26:21.939Z,6.58
2019-02-28T23:28:57.295Z,6.58
2019-02-28T23:31:55.496Z,7.15
2019-02-28T23:34:34.187Z,7.45
2019-02-28T23:37:03.623Z,8.08
2019-02-28T23:39:33.039Z,7.17
2019-02-28T23:42:02.523Z,7.05
2019-02-28T23:44:31.933Z,7.42
2019-02-28T23:47:01.396Z,7.75
2019-02-28T23:49:30.807Z,7.40
2019-02-28T23:52:00.271Z,7.60
2019-02-28T23:54:29.643Z,7.15
2019-02-28T23:56:59.149Z,7.00
2019-02-28T23:59:28.579Z,7.40
